Terminal Aerodrome Forecast
Issued by NWS Blacksburg, VA

Home | Current Version | Previous Version | Text Only | Print | Product List | Glossary On
Versions: 1 2 3 4 5 6 7 8 9 10 11 12 13 14 15 16 17 18 19 20 21 22 23
000
FTUS41 KRNK 290539
TAFDAN
TAF
KDAN 290539Z 2906/3006 00000KT P6SM SCT250
     FM291000 20002KT 4SM BR SCT250
     FM291300 18004KT P6SM SCT050 BKN250
     FM300000 00000KT P6SM OVC250=

USA.gov is the U.S. government's official web portal to all federal, state and local government web resources and services.